createdAt,value
2023-04-27T00:00:22.825Z,95013.00
2023-04-27T00:01:22.888Z,95009.00
2023-04-27T00:02:23.046Z,95009.00
2023-04-27T00:03:23.129Z,95005.00
2023-04-27T00:04:23.165Z,95005.00
2023-04-27T00:05:23.084Z,95001.00
2023-04-27T00:06:23.104Z,95001.00
2023-04-27T00:07:23.123Z,94999.00
2023-04-27T00:08:23.153Z,95001.00
2023-04-27T00:09:23.198Z,95001.00
2023-04-27T00:10:23.217Z,94999.00
2023-04-27T00:11:23.289Z,95001.00
2023-04-27T00:12:23.684Z,94999.00
2023-04-27T00:13:23.361Z,94997.00
2023-04-27T00:14:23.425Z,94997.00
2023-04-27T00:15:23.483Z,94997.00
2023-04-27T00:16:23.591Z,94997.00
2023-04-27T00:17:23.592Z,94995.00
2023-04-27T00:18:23.594Z,94995.00
2023-04-27T00:19:23.626Z,94997.00
2023-04-27T00:20:23.683Z,94997.00
2023-04-27T00:21:23.731Z,94999.00
2023-04-27T00:22:23.768Z,94997.00
2023-04-27T00:23:23.841Z,94997.00
2023-04-27T00:24:23.876Z,94997.00
2023-04-27T00:25:23.952Z,94995.00
2023-04-27T00:26:23.964Z,94993.00
2023-04-27T00:27:24.067Z,94995.00
2023-04-27T00:28:24.088Z,94991.00
2023-04-27T00:29:24.165Z,94991.00
2023-04-27T00:30:24.190Z,94991.00
2023-04-27T00:31:24.318Z,94991.00
2023-04-27T00:32:24.404Z,94993.00
2023-04-27T00:33:24.381Z,94993.00
2023-04-27T00:34:24.453Z,94993.00
2023-04-27T00:35:24.522Z,94989.00
2023-04-27T00:36:24.539Z,94993.00
2023-04-27T00:37:24.585Z,94991.00
2023-04-27T00:38:24.624Z,94991.00
2023-04-27T00:39:24.738Z,94991.00
2023-04-27T00:40:24.783Z,94991.00
2023-04-27T00:41:24.834Z,94989.00
2023-04-27T00:42:24.879Z,94987.00
2023-04-27T00:43:24.944Z,94983.00
2023-04-27T00:44:24.972Z,94985.00
2023-04-27T00:45:25.055Z,94983.00
2023-04-27T00:46:25.158Z,94985.00
2023-04-27T00:47:25.198Z,94989.00
2023-04-27T00:48:25.240Z,94989.00
2023-04-27T00:49:25.289Z,94985.00
2023-04-27T00:50:25.356Z,94985.00
2023-04-27T00:51:25.410Z,94987.00
2023-04-27T00:52:25.481Z,94985.00
2023-04-27T00:53:25.520Z,94987.00
2023-04-27T00:54:25.576Z,94987.00
2023-04-27T00:55:25.639Z,94985.00
2023-04-27T00:56:25.715Z,94983.00
2023-04-27T00:57:25.749Z,94983.00
2023-04-27T00:58:25.812Z,94981.00
2023-04-27T00:59:25.882Z,94981.00
2023-04-27T01:00:25.940Z,94979.00
2023-04-27T01:01:26.076Z,94979.00
2023-04-27T01:02:26.150Z,94979.00
2023-04-27T01:03:26.203Z,94977.00
2023-04-27T01:04:26.262Z,94979.00
2023-04-27T01:05:26.199Z,94981.00
2023-04-27T01:06:26.234Z,94979.00
2023-04-27T01:07:26.306Z,94983.00
2023-04-27T01:08:26.408Z,94985.00
2023-04-27T01:09:26.436Z,94985.00
2023-04-27T01:10:26.514Z,94985.00
2023-04-27T01:11:26.549Z,94985.00
2023-04-27T01:12:26.624Z,94985.00
2023-04-27T01:13:26.692Z,94983.00
2023-04-27T01:14:26.759Z,94983.00
2023-04-27T01:15:26.821Z,94985.00
2023-04-27T01:16:26.902Z,94987.00
2023-04-27T01:17:26.979Z,94987.00
2023-04-27T01:18:26.984Z,94985.00
2023-04-27T01:19:27.041Z,94983.00
2023-04-27T01:20:27.094Z,94985.00
2023-04-27T01:21:27.152Z,94983.00
2023-04-27T01:22:27.262Z,94987.00
2023-04-27T01:23:27.259Z,94983.00
2023-04-27T01:24:27.340Z,94987.00
2023-04-27T01:25:27.417Z,94987.00
2023-04-27T01:26:27.450Z,94981.00
2023-04-27T01:27:27.499Z,94979.00
2023-04-27T01:28:27.568Z,94981.00
2023-04-27T01:29:27.639Z,94979.00
2023-04-27T01:30:27.722Z,94981.00
2023-04-27T01:31:27.745Z,94979.00
2023-04-27T01:32:27.844Z,94981.00
2023-04-27T01:33:27.879Z,94981.00
2023-04-27T01:34:27.888Z,94981.00
2023-04-27T01:35:28.486Z,94985.00
2023-04-27T01:36:27.980Z,94983.00
2023-04-27T01:37:28.058Z,94981.00
2023-04-27T01:38:28.138Z,94979.00
2023-04-27T01:39:28.173Z,94977.00
2023-04-27T01:40:28.190Z,94981.00
2023-04-27T01:41:28.251Z,94979.00
2023-04-27T01:42:28.309Z,94977.00
2023-04-27T01:43:28.392Z,94975.00
2023-04-27T01:44:28.413Z,94979.00
2023-04-27T01:45:28.449Z,94977.00
2023-04-27T01:46:28.519Z,94979.00
2023-04-27T01:47:28.616Z,94977.00
2023-04-27T01:48:28.581Z,94973.00
2023-04-27T01:49:28.644Z,94975.00
2023-04-27T01:50:28.644Z,94975.00
2023-04-27T01:51:28.752Z,94975.00
2023-04-27T01:52:28.818Z,94975.00
2023-04-27T01:53:28.917Z,94977.00
2023-04-27T01:54:28.927Z,94977.00
2023-04-27T01:55:28.933Z,94979.00
2023-04-27T01:56:28.909Z,94981.00
2023-04-27T01:57:28.915Z,94979.00
2023-04-27T01:58:28.927Z,94975.00
2023-04-27T01:59:28.934Z,94975.00
2023-04-27T02:00:29.048Z,94975.00
2023-04-27T02:01:29.039Z,94975.00
2023-04-27T02:02:29.160Z,94979.00
2023-04-27T02:03:29.148Z,94979.00
2023-04-27T02:04:29.134Z,94981.00
2023-04-27T02:05:29.077Z,94979.00
2023-04-27T02:06:29.080Z,94985.00
2023-04-27T02:07:29.182Z,94983.00
2023-04-27T02:08:29.264Z,94983.00
2023-04-27T02:09:29.396Z,94981.00
2023-04-27T02:10:29.428Z,94975.00
2023-04-27T02:11:29.512Z,94977.00
2023-04-27T02:12:29.638Z,94977.00
2023-04-27T02:13:29.684Z,94977.00
2023-04-27T02:14:29.805Z,94977.00
2023-04-27T02:15:29.883Z,94981.00
2023-04-27T02:16:29.983Z,94985.00
2023-04-27T02:17:30.115Z,94985.00
2023-04-27T02:18:30.151Z,94987.00
2023-04-27T02:19:30.155Z,94987.00
2023-04-27T02:20:30.140Z,94987.00
2023-04-27T02:21:30.170Z,94987.00
2023-04-27T02:22:30.167Z,94987.00
2023-04-27T02:23:30.124Z,94985.00
2023-04-27T02:24:30.205Z,94979.00
2023-04-27T02:25:30.303Z,94977.00
2023-04-27T02:26:30.297Z,94983.00
2023-04-27T02:27:30.315Z,94987.00
2023-04-27T02:28:30.360Z,94989.00
2023-04-27T02:29:30.380Z,94991.00
2023-04-27T02:30:30.385Z,94993.00
2023-04-27T02:31:30.412Z,94993.00
2023-04-27T02:32:30.400Z,94993.00
2023-04-27T02:33:30.362Z,94995.00
2023-04-27T02:34:30.366Z,94997.00
2023-04-27T02:35:30.458Z,94993.00
2023-04-27T02:36:30.451Z,94993.00
2023-04-27T02:37:30.489Z,94993.00
2023-04-27T02:38:30.475Z,94995.00
2023-04-27T02:39:30.484Z,94997.00
2023-04-27T02:40:30.591Z,94999.00
2023-04-27T02:41:30.667Z,94997.00
2023-04-27T02:42:30.673Z,94995.00
2023-04-27T02:43:30.678Z,94991.00
2023-04-27T02:44:30.685Z,94989.00
2023-04-27T02:45:30.689Z,94985.00
2023-04-27T02:46:30.754Z,94989.00
2023-04-27T02:47:30.876Z,94989.00
2023-04-27T02:48:30.908Z,94989.00
2023-04-27T02:49:30.995Z,94991.00
2023-04-27T02:50:31.061Z,94991.00
2023-04-27T02:51:31.060Z,94993.00
2023-04-27T02:52:31.088Z,94991.00
2023-04-27T02:53:31.081Z,94991.00
2023-04-27T02:54:31.069Z,94989.00
2023-04-27T02:55:31.171Z,94989.00
2023-04-27T02:56:31.180Z,94991.00
2023-04-27T02:57:31.182Z,94995.00
2023-04-27T02:58:31.189Z,94999.00
2023-04-27T02:59:31.193Z,94997.00
2023-04-27T03:00:31.194Z,95001.00
2023-04-27T03:01:31.348Z,95003.00
2023-04-27T03:02:31.398Z,94999.00
2023-04-27T03:03:31.625Z,94997.00
2023-04-27T03:04:31.546Z,94995.00
2023-04-27T03:05:31.504Z,94993.00
2023-04-27T03:06:31.484Z,94989.00
2023-04-27T03:07:31.504Z,94989.00
2023-04-27T03:08:31.613Z,94989.00
2023-04-27T03:09:31.629Z,94991.00
2023-04-27T03:10:31.595Z,94991.00
2023-04-27T03:11:31.638Z,94993.00
2023-04-27T03:12:31.648Z,94993.00
2023-04-27T03:13:31.836Z,94995.00
2023-04-27T03:14:31.744Z,94989.00
2023-04-27T03:15:31.767Z,94989.00
2023-04-27T03:16:31.833Z,94991.00
2023-04-27T03:17:31.849Z,94991.00
2023-04-27T03:18:31.813Z,94995.00
2023-04-27T03:19:31.813Z,94993.00
2023-04-27T03:20:31.865Z,94997.00
2023-04-27T03:21:31.929Z,94999.00
2023-04-27T03:22:31.890Z,94995.00
2023-04-27T03:23:31.889Z,94995.00
2023-04-27T03:24:31.924Z,94999.00
2023-04-27T03:25:31.984Z,94999.00
2023-04-27T03:26:31.991Z,94999.00
2023-04-27T03:27:32.010Z,95001.00
2023-04-27T03:28:32.029Z,95003.00
2023-04-27T03:29:32.015Z,95003.00
2023-04-27T03:30:32.100Z,95005.00
2023-04-27T03:31:32.134Z,95003.00
2023-04-27T03:32:32.150Z,95003.00
2023-04-27T03:33:32.162Z,95003.00
2023-04-27T03:34:32.190Z,94999.00
2023-04-27T03:35:32.158Z,95001.00
2023-04-27T03:36:32.229Z,95001.00
2023-04-27T03:37:32.228Z,95003.00
2023-04-27T03:38:32.232Z,95005.00
2023-04-27T03:39:32.265Z,95011.00
2023-04-27T03:40:32.319Z,95011.00
2023-04-27T03:41:32.295Z,95013.00
2023-04-27T03:42:32.309Z,95009.00
2023-04-27T03:43:32.347Z,95013.00
2023-04-27T03:44:32.356Z,95013.00
2023-04-27T03:45:32.373Z,95015.00
2023-04-27T03:46:32.483Z,95015.00
2023-04-27T03:47:32.457Z,95015.00
2023-04-27T03:48:32.422Z,95019.00
2023-04-27T03:49:32.474Z,95020.00
2023-04-27T03:50:32.476Z,95020.00
2023-04-27T03:51:32.518Z,95026.00
2023-04-27T03:52:32.508Z,95022.00
2023-04-27T03:53:32.534Z,95024.00
2023-04-27T03:54:32.572Z,95020.00
2023-04-27T03:55:32.600Z,95020.00
2023-04-27T03:56:32.600Z,95020.00
2023-04-27T03:57:32.626Z,95024.00
2023-04-27T03:58:32.658Z,95022.00
2023-04-27T03:59:32.656Z,95024.00
2023-04-27T04:00:32.680Z,95024.00
2023-04-27T04:01:32.762Z,95030.00
2023-04-27T04:02:32.782Z,95032.00
2023-04-27T04:03:32.881Z,95034.00
2023-04-27T04:04:32.935Z,95034.00
2023-04-27T04:05:32.806Z,95038.00
2023-04-27T04:06:32.840Z,95042.00
2023-04-27T04:07:32.874Z,95040.00
2023-04-27T04:08:32.955Z,95046.00
2023-04-27T04:09:32.922Z,95046.00
2023-04-27T04:10:33.778Z,95046.00
2023-04-27T04:11:32.961Z,95050.00
2023-04-27T04:12:33.001Z,95056.00
2023-04-27T04:13:33.042Z,95058.00
2023-04-27T04:14:33.029Z,95056.00
2023-04-27T04:15:33.088Z,95062.00
2023-04-27T04:16:33.104Z,95064.00
2023-04-27T04:17:33.147Z,95064.00
2023-04-27T04:18:33.130Z,95066.00
2023-04-27T04:19:33.150Z,95066.00
2023-04-27T04:20:33.196Z,95069.00
2023-04-27T04:21:33.205Z,95069.00
2023-04-27T04:22:33.230Z,95071.00
2023-04-27T04:23:33.236Z,95077.00
2023-04-27T04:24:33.291Z,95083.00
2023-04-27T04:25:33.297Z,95079.00
2023-04-27T04:26:33.313Z,95081.00
2023-04-27T04:27:33.328Z,95083.00
2023-04-27T04:28:33.320Z,95085.00
2023-04-27T04:29:33.365Z,95087.00
2023-04-27T04:30:33.378Z,95085.00
2023-04-27T04:31:33.412Z,95089.00
2023-04-27T04:32:33.440Z,95089.00
2023-04-27T04:33:33.439Z,95093.00
2023-04-27T04:34:33.461Z,95093.00
2023-04-27T04:35:33.480Z,95093.00
2023-04-27T04:36:33.512Z,95097.00
2023-04-27T04:37:33.510Z,95095.00
2023-04-27T04:38:33.547Z,95095.00
2023-04-27T04:39:33.556Z,95097.00
2023-04-27T04:40:33.616Z,95099.00
2023-04-27T04:41:33.716Z,95101.00
2023-04-27T04:42:33.770Z,95101.00
2023-04-27T04:43:33.756Z,95103.00
2023-04-27T04:44:33.815Z,95103.00
2023-04-27T04:45:33.859Z,95105.00
2023-04-27T04:46:33.936Z,95107.00
2023-04-27T04:47:33.930Z,95109.00
2023-04-27T04:48:33.967Z,95111.00
2023-04-27T04:49:33.969Z,95107.00
2023-04-27T04:50:34.003Z,95111.00
2023-04-27T04:51:34.058Z,95113.00
2023-04-27T04:52:34.087Z,95109.00
2023-04-27T04:53:34.120Z,95113.00
2023-04-27T04:54:34.153Z,95113.00
2023-04-27T04:55:34.175Z,95113.00
2023-04-27T04:57:43.083Z,95117.00
2023-04-27T04:58:43.125Z,95119.00
2023-04-27T04:59:43.158Z,95119.00
2023-04-27T05:00:43.159Z,95119.00
2023-04-27T05:01:43.199Z,95117.00
2023-04-27T05:02:43.313Z,95117.00
2023-04-27T05:03:43.289Z,95113.00
2023-04-27T05:04:43.279Z,95111.00
2023-04-27T05:05:43.140Z,95111.00
2023-04-27T05:06:43.174Z,95111.00
2023-04-27T05:07:43.126Z,95115.00
2023-04-27T05:08:43.118Z,95117.00
2023-04-27T05:09:43.094Z,95119.00
2023-04-27T05:10:43.094Z,95122.00
2023-04-27T05:11:43.130Z,95126.00
2023-04-27T05:12:43.074Z,95124.00
2023-04-27T05:13:43.095Z,95122.00
2023-04-27T05:14:43.132Z,95126.00
2023-04-27T05:15:43.082Z,95128.00
2023-04-27T05:16:43.105Z,95130.00
2023-04-27T05:17:43.078Z,95136.00
2023-04-27T05:18:43.036Z,95146.00
2023-04-27T05:19:43.029Z,95148.00
2023-04-27T05:20:43.036Z,95150.00
2023-04-27T05:21:43.005Z,95148.00
2023-04-27T05:22:43.014Z,95146.00
2023-04-27T05:23:43.008Z,95150.00
2023-04-27T05:24:43.010Z,95152.00
2023-04-27T05:25:43.036Z,95152.00
2023-04-27T05:26:43.020Z,95152.00
2023-04-27T05:27:43.001Z,95150.00
2023-04-27T05:28:42.996Z,95150.00
2023-04-27T05:29:42.970Z,95148.00
2023-04-27T05:30:42.963Z,95146.00
2023-04-27T05:31:43.028Z,95144.00
2023-04-27T05:32:42.967Z,95148.00
2023-04-27T05:33:42.965Z,95150.00
2023-04-27T05:34:42.942Z,95148.00
2023-04-27T05:35:42.941Z,95150.00
2023-04-27T05:36:42.919Z,95152.00
2023-04-27T05:37:42.924Z,95150.00
2023-04-27T05:38:42.957Z,95150.00
2023-04-27T05:39:42.937Z,95152.00
2023-04-27T05:40:42.897Z,95154.00
2023-04-27T05:41:42.925Z,95152.00
2023-04-27T05:42:42.896Z,95154.00
2023-04-27T05:43:42.923Z,95154.00
2023-04-27T05:44:42.848Z,95152.00
2023-04-27T05:45:42.947Z,95158.00
2023-04-27T05:46:42.858Z,95158.00
2023-04-27T05:47:42.865Z,95162.00
2023-04-27T05:48:42.856Z,95158.00
2023-04-27T05:49:42.835Z,95160.00
2023-04-27T05:50:42.853Z,95160.00
2023-04-27T05:51:42.813Z,95160.00
2023-04-27T05:52:42.832Z,95162.00
2023-04-27T05:53:42.830Z,95156.00
2023-04-27T05:54:42.818Z,95164.00
2023-04-27T05:55:42.814Z,95160.00
2023-04-27T05:56:42.841Z,95158.00
2023-04-27T05:57:42.780Z,95162.00
2023-04-27T05:58:42.796Z,95162.00
2023-04-27T05:59:42.790Z,95162.00
2023-04-27T06:00:42.766Z,95168.00
2023-04-27T06:01:42.755Z,95166.00
2023-04-27T06:02:42.914Z,95164.00
2023-04-27T06:03:42.936Z,95160.00
2023-04-27T06:04:42.736Z,95160.00
2023-04-27T06:05:42.792Z,95160.00
2023-04-27T06:06:42.717Z,95158.00
2023-04-27T06:07:42.722Z,95160.00
2023-04-27T06:08:42.697Z,95162.00
2023-04-27T06:09:42.765Z,95162.00
2023-04-27T06:10:42.772Z,95162.00
2023-04-27T06:11:42.790Z,95166.00
2023-04-27T06:12:44.561Z,95166.00
2023-04-27T06:13:42.809Z,95166.00
2023-04-27T06:14:42.873Z,95168.00
2023-04-27T06:15:42.841Z,95168.00
2023-04-27T06:16:42.771Z,95171.00
2023-04-27T06:17:42.793Z,95171.00
2023-04-27T06:18:42.782Z,95171.00
2023-04-27T06:19:42.785Z,95175.00
2023-04-27T06:20:42.753Z,95171.00
2023-04-27T06:21:42.742Z,95179.00
2023-04-27T06:22:42.744Z,95179.00
2023-04-27T06:23:42.699Z,95179.00
2023-04-27T06:24:42.756Z,95179.00
2023-04-27T06:25:42.734Z,95175.00
2023-04-27T06:26:42.721Z,95177.00
2023-04-27T06:27:42.705Z,95177.00
2023-04-27T06:28:42.716Z,95177.00
2023-04-27T06:29:42.663Z,95173.00
2023-04-27T06:30:42.715Z,95175.00
2023-04-27T06:31:42.727Z,95173.00
2023-04-27T06:32:42.723Z,95173.00
2023-04-27T06:33:42.656Z,95171.00
2023-04-27T06:34:42.634Z,95175.00
2023-04-27T06:35:44.585Z,95173.00
2023-04-27T06:36:42.618Z,95173.00
2023-04-27T06:37:42.755Z,95175.00
2023-04-27T06:38:42.637Z,95175.00
2023-04-27T06:39:42.618Z,95175.00
2023-04-27T06:40:42.617Z,95177.00
2023-04-27T06:41:42.589Z,95177.00
2023-04-27T06:42:42.596Z,95175.00
2023-04-27T06:43:42.582Z,95179.00
2023-04-27T06:44:42.587Z,95179.00
2023-04-27T06:45:42.600Z,95181.00
2023-04-27T06:46:42.776Z,95183.00
2023-04-27T06:47:42.594Z,95183.00
2023-04-27T06:48:42.542Z,95185.00
2023-04-27T06:49:42.532Z,95179.00
2023-04-27T06:50:42.542Z,95183.00
2023-04-27T06:51:42.811Z,95187.00
2023-04-27T06:52:42.562Z,95191.00
2023-04-27T06:53:42.527Z,95191.00
2023-04-27T06:54:42.527Z,95191.00
2023-04-27T06:55:45.037Z,95191.00
2023-04-27T06:56:42.667Z,95193.00
2023-04-27T06:57:42.516Z,95191.00
2023-04-27T06:58:42.512Z,95189.00
2023-04-27T06:59:42.506Z,95189.00
2023-04-27T07:00:42.478Z,95191.00
2023-04-27T07:01:42.484Z,95195.00
2023-04-27T07:02:42.581Z,95197.00
2023-04-27T07:03:42.619Z,95195.00
2023-04-27T07:04:42.469Z,95191.00
2023-04-27T07:05:42.413Z,95193.00
2023-04-27T07:06:42.439Z,95195.00
2023-04-27T07:07:42.446Z,95191.00
2023-04-27T07:08:42.427Z,95195.00
2023-04-27T07:09:42.489Z,95195.00
2023-04-27T07:10:42.438Z,95193.00
2023-04-27T07:11:42.388Z,95191.00
2023-04-27T07:12:42.401Z,95189.00
2023-04-27T07:13:42.420Z,95191.00
2023-04-27T07:14:42.369Z,95189.00
2023-04-27T07:15:42.419Z,95191.00
2023-04-27T07:16:42.381Z,95191.00
2023-04-27T07:17:42.428Z,95191.00
2023-04-27T07:18:43.575Z,95191.00
2023-04-27T07:19:42.365Z,95189.00
2023-04-27T07:20:42.365Z,95189.00
2023-04-27T07:21:42.360Z,95187.00
2023-04-27T07:22:42.390Z,95189.00
2023-04-27T07:23:42.347Z,95189.00
2023-04-27T07:24:42.310Z,95185.00
2023-04-27T07:25:42.328Z,95185.00
2023-04-27T07:26:42.306Z,95187.00
2023-04-27T07:27:42.309Z,95189.00
2023-04-27T07:28:42.314Z,95187.00
2023-04-27T07:29:42.272Z,95187.00
2023-04-27T07:30:42.262Z,95183.00
2023-04-27T07:31:42.304Z,95187.00
2023-04-27T07:32:42.341Z,95185.00
2023-04-27T07:33:42.752Z,95185.00
2023-04-27T07:34:52.731Z,95187.00
2023-04-27T07:35:43.214Z,95187.00
2023-04-27T07:36:42.264Z,95189.00
2023-04-27T07:37:42.244Z,95193.00
2023-04-27T07:38:42.192Z,95195.00
2023-04-27T07:39:42.212Z,95195.00
2023-04-27T07:40:44.792Z,95197.00
2023-04-27T07:41:42.426Z,95199.00
2023-04-27T07:42:42.480Z,95199.00
2023-04-27T07:43:42.787Z,95199.00
2023-04-27T07:44:42.595Z,95199.00
2023-04-27T07:45:42.678Z,95199.00
2023-04-27T07:46:42.579Z,95201.00
2023-04-27T07:47:42.746Z,95203.00
2023-04-27T07:48:42.652Z,95209.00
2023-04-27T07:49:42.681Z,95205.00
2023-04-27T07:50:42.750Z,95207.00
2023-04-27T07:51:42.804Z,95209.00
2023-04-27T07:52:42.815Z,95207.00
2023-04-27T07:53:43.278Z,95207.00
2023-04-27T07:54:42.908Z,95207.00
2023-04-27T07:55:43.012Z,95211.00
2023-04-27T07:56:43.031Z,95209.00
2023-04-27T07:57:43.108Z,95213.00
2023-04-27T07:58:43.267Z,95213.00
2023-04-27T07:59:43.210Z,95213.00
2023-04-27T08:00:43.263Z,95213.00
2023-04-27T08:01:43.326Z,95214.00
2023-04-27T08:02:43.611Z,95216.00
2023-04-27T08:03:43.699Z,95214.00
2023-04-27T08:04:43.642Z,95218.00
2023-04-27T08:05:44.695Z,95216.00
2023-04-27T08:06:43.725Z,95218.00
2023-04-27T08:07:44.936Z,95220.00
2023-04-27T08:08:43.770Z,95220.00
2023-04-27T08:09:43.703Z,95220.00
2023-04-27T08:10:43.757Z,95216.00
2023-04-27T08:11:43.834Z,95218.00
2023-04-27T08:12:43.843Z,95218.00
2023-04-27T08:13:43.929Z,95218.00
2023-04-27T08:14:43.943Z,95220.00
2023-04-27T08:15:44.032Z,95218.00
2023-04-27T08:16:44.111Z,95220.00
2023-04-27T08:17:44.098Z,95220.00
2023-04-27T08:18:44.173Z,95220.00
2023-04-27T08:19:44.176Z,95220.00
2023-04-27T08:20:44.199Z,95220.00
2023-04-27T08:21:44.250Z,95220.00
2023-04-27T08:22:44.271Z,95220.00
2023-04-27T08:23:44.253Z,95218.00
2023-04-27T08:24:44.322Z,95218.00
2023-04-27T08:25:44.325Z,95218.00
2023-04-27T08:26:44.356Z,95218.00
2023-04-27T08:27:44.411Z,95220.00
2023-04-27T08:28:44.394Z,95220.00
2023-04-27T08:29:44.452Z,95218.00
2023-04-27T08:30:44.482Z,95220.00
2023-04-27T08:31:44.556Z,95222.00
2023-04-27T08:32:44.592Z,95220.00
2023-04-27T08:33:44.763Z,95220.00
2023-04-27T08:34:44.609Z,95220.00
2023-04-27T08:35:44.678Z,95218.00
2023-04-27T08:36:44.650Z,95216.00
2023-04-27T08:37:44.705Z,95214.00
2023-04-27T08:38:44.798Z,95216.00
2023-04-27T08:39:44.715Z,95216.00
2023-04-27T08:40:44.741Z,95218.00
2023-04-27T08:41:44.780Z,95216.00
2023-04-27T08:42:44.791Z,95218.00
2023-04-27T08:43:44.813Z,95213.00
2023-04-27T08:44:44.852Z,95214.00
2023-04-27T08:45:44.881Z,95213.00
2023-04-27T08:46:45.007Z,95213.00
2023-04-27T08:47:45.002Z,95211.00
2023-04-27T08:48:44.967Z,95209.00
2023-04-27T08:49:44.974Z,95211.00
2023-04-27T08:50:44.996Z,95213.00
2023-04-27T08:51:45.040Z,95209.00
2023-04-27T08:52:45.077Z,95211.00
2023-04-27T08:53:45.292Z,95207.00
2023-04-27T08:54:45.096Z,95205.00
2023-04-27T08:55:45.111Z,95205.00
2023-04-27T08:56:45.162Z,95209.00
2023-04-27T08:57:45.184Z,95209.00
2023-04-27T08:58:45.212Z,95211.00
2023-04-27T08:59:45.219Z,95213.00
2023-04-27T09:00:45.288Z,95211.00
2023-04-27T09:01:45.342Z,95213.00
2023-04-27T09:02:45.474Z,95209.00
2023-04-27T09:03:45.573Z,95209.00
2023-04-27T09:04:45.435Z,95207.00
2023-04-27T09:05:56.500Z,95205.00
2023-04-27T09:06:46.351Z,95207.00
2023-04-27T09:07:45.308Z,95209.00
2023-04-27T09:08:45.386Z,95207.00
2023-04-27T09:09:45.359Z,95207.00
2023-04-27T09:10:45.329Z,95209.00
2023-04-27T09:11:45.315Z,95209.00
2023-04-27T09:12:45.289Z,95205.00
2023-04-27T09:13:45.269Z,95211.00
2023-04-27T09:14:45.295Z,95209.00
2023-04-27T09:15:47.716Z,95207.00
2023-04-27T09:16:45.423Z,95205.00
2023-04-27T09:17:45.403Z,95203.00
2023-04-27T09:18:45.250Z,95201.00
2023-04-27T09:19:45.251Z,95199.00
2023-04-27T09:20:45.220Z,95201.00
2023-04-27T09:21:47.676Z,95199.00
2023-04-27T09:22:45.313Z,95199.00
2023-04-27T09:23:45.297Z,95197.00
2023-04-27T09:24:45.270Z,95195.00
2023-04-27T09:25:45.286Z,95193.00
2023-04-27T09:26:45.332Z,95191.00
2023-04-27T09:27:45.295Z,95185.00
2023-04-27T09:28:45.812Z,95189.00
2023-04-27T09:29:45.332Z,95185.00
2023-04-27T09:30:45.334Z,95181.00
2023-04-27T09:31:45.382Z,95181.00
2023-04-27T09:32:45.359Z,95187.00
2023-04-27T09:33:45.315Z,95185.00
2023-04-27T09:34:45.411Z,95181.00
2023-04-27T09:35:45.347Z,95181.00
2023-04-27T09:36:45.477Z,95179.00
2023-04-27T09:37:45.341Z,95185.00
2023-04-27T09:38:45.810Z,95181.00
2023-04-27T09:39:45.319Z,95175.00
2023-04-27T09:40:45.329Z,95177.00
2023-04-27T09:41:45.319Z,95173.00
2023-04-27T09:42:45.541Z,95173.00
2023-04-27T09:43:45.330Z,95168.00
2023-04-27T09:44:45.837Z,95166.00
2023-04-27T09:45:45.390Z,95164.00
2023-04-27T09:46:45.406Z,95168.00
2023-04-27T09:47:45.398Z,95168.00
2023-04-27T09:48:45.370Z,95164.00
2023-04-27T09:49:45.814Z,95160.00
2023-04-27T09:50:45.395Z,95158.00
2023-04-27T09:51:45.384Z,95158.00
2023-04-27T09:52:45.441Z,95156.00
2023-04-27T09:53:45.423Z,95152.00
2023-04-27T09:54:45.483Z,95154.00
2023-04-27T09:55:45.415Z,95152.00
2023-04-27T09:56:45.460Z,95148.00
2023-04-27T09:57:45.497Z,95144.00
2023-04-27T09:58:45.512Z,95136.00
2023-04-27T09:59:45.546Z,95136.00
2023-04-27T10:00:45.534Z,95144.00
2023-04-27T10:01:45.569Z,95136.00
2023-04-27T10:02:53.272Z,95136.00
2023-04-27T10:03:46.593Z,95136.00
2023-04-27T10:04:45.571Z,95132.00
2023-04-27T10:05:45.549Z,95132.00
2023-04-27T10:06:45.538Z,95132.00
2023-04-27T10:07:45.497Z,95130.00
2023-04-27T10:08:45.514Z,95126.00
2023-04-27T10:09:45.526Z,95128.00
2023-04-27T10:10:45.500Z,95124.00
2023-04-27T10:11:45.461Z,95121.00
2023-04-27T10:12:45.457Z,95122.00
2023-04-27T10:13:45.504Z,95124.00
2023-04-27T10:14:45.514Z,95122.00
2023-04-27T10:15:45.445Z,95121.00
2023-04-27T10:16:45.548Z,95121.00
2023-04-27T10:17:45.518Z,95119.00
2023-04-27T10:18:45.471Z,95115.00
2023-04-27T10:19:45.447Z,95113.00
2023-04-27T10:20:45.445Z,95105.00
2023-04-27T10:21:45.456Z,95105.00
2023-04-27T10:22:45.403Z,95103.00
2023-04-27T10:23:45.386Z,95101.00
2023-04-27T10:24:45.449Z,95101.00
2023-04-27T10:25:45.401Z,95105.00
2023-04-27T10:26:45.424Z,95101.00
2023-04-27T10:27:45.405Z,95101.00
2023-04-27T10:28:45.396Z,95097.00
2023-04-27T10:29:45.406Z,95093.00
2023-04-27T10:30:45.384Z,95095.00
2023-04-27T10:31:45.422Z,95095.00
2023-04-27T10:32:45.413Z,95099.00
2023-04-27T10:33:45.479Z,95097.00
2023-04-27T10:34:45.462Z,95097.00
2023-04-27T10:35:45.463Z,95097.00
2023-04-27T10:36:45.466Z,95095.00
2023-04-27T10:37:45.470Z,95091.00
2023-04-27T10:38:45.523Z,95087.00
2023-04-27T10:39:48.960Z,95087.00
2023-04-27T10:40:45.479Z,95083.00
2023-04-27T10:41:45.454Z,95083.00
2023-04-27T10:42:45.473Z,95081.00
2023-04-27T10:43:45.503Z,95077.00
2023-04-27T10:44:45.515Z,95081.00
2023-04-27T10:45:45.479Z,95079.00
2023-04-27T10:46:45.462Z,95073.00
2023-04-27T10:47:45.482Z,95075.00
2023-04-27T10:48:45.436Z,95073.00
2023-04-27T10:49:45.442Z,95071.00
2023-04-27T10:50:45.448Z,95071.00
2023-04-27T10:51:45.503Z,95073.00
2023-04-27T10:52:45.449Z,95069.00
2023-04-27T10:53:45.436Z,95069.00
2023-04-27T10:54:45.381Z,95069.00
2023-04-27T10:55:45.391Z,95067.00
2023-04-27T10:56:45.395Z,95067.00
2023-04-27T10:57:45.349Z,95067.00
2023-04-27T10:58:49.314Z,95062.00
2023-04-27T10:59:45.407Z,95060.00
2023-04-27T11:00:45.343Z,95058.00
2023-04-27T11:01:45.394Z,95058.00
2023-04-27T11:02:45.384Z,95056.00
2023-04-27T11:03:45.493Z,95058.00
2023-04-27T11:04:45.348Z,95056.00
2023-04-27T11:05:45.320Z,95054.00
2023-04-27T11:06:45.333Z,95052.00
2023-04-27T11:07:45.316Z,95056.00
2023-04-27T11:08:45.313Z,95054.00
2023-04-27T11:09:45.286Z,95050.00
2023-04-27T11:10:45.277Z,95050.00
2023-04-27T11:11:45.283Z,95056.00
2023-04-27T11:12:45.256Z,95054.00
2023-04-27T11:13:45.279Z,95052.00
2023-04-27T11:14:45.264Z,95052.00
2023-04-27T11:15:45.297Z,95048.00
2023-04-27T11:16:45.313Z,95048.00
2023-04-27T11:17:45.265Z,95048.00
2023-04-27T11:18:45.285Z,95048.00
2023-04-27T11:19:45.210Z,95046.00
2023-04-27T11:20:45.231Z,95048.00
2023-04-27T11:21:45.230Z,95048.00
2023-04-27T11:22:45.225Z,95050.00
2023-04-27T11:23:45.203Z,95046.00
2023-04-27T11:24:45.373Z,95048.00
2023-04-27T11:25:45.192Z,95050.00
2023-04-27T11:26:45.189Z,95046.00
2023-04-27T11:27:45.196Z,95048.00
2023-04-27T11:28:45.158Z,95046.00
2023-04-27T11:29:45.362Z,95052.00
2023-04-27T11:30:45.137Z,95046.00
2023-04-27T11:31:45.252Z,95052.00
2023-04-27T11:32:45.196Z,95052.00
2023-04-27T11:33:45.131Z,95050.00
2023-04-27T11:34:45.356Z,95054.00
2023-04-27T11:35:45.371Z,95054.00
2023-04-27T11:36:45.357Z,95054.00
2023-04-27T11:37:45.100Z,95052.00
2023-04-27T11:38:45.117Z,95050.00
2023-04-27T11:39:45.073Z,95048.00
2023-04-27T11:40:45.088Z,95048.00
2023-04-27T11:41:45.049Z,95042.00
2023-04-27T11:42:45.033Z,95038.00
2023-04-27T11:43:45.036Z,95038.00
2023-04-27T11:44:45.052Z,95036.00
2023-04-27T11:45:45.022Z,95032.00